Time;durP1;ratioP1;P1;durP2;ratioP2;P2;SDS_P1;SDS_P2;PMS_P1;PMS_P2;Temp;Humidity;BMP_temperature;BMP_pressure;BME280_temperature;BME280_humidity;BME280_pressure;Samples;Min_cycle;Max_cycle;Signal;HPM_P1;HPM_P2
2022/12/04 00:01:28;;;;;;;1999.90;999.90;;;4.00;99.90;;;;;;5051873;28;20175;-70
2022/12/04 00:03:57;;;;;;;1999.90;999.90;;;4.00;99.90;;;;;;5052076;28;20436;-70
2022/12/04 00:06:23;;;;;;;1999.90;999.90;;;4.00;99.90;;;;;;5051952;28;20183;-70
2022/12/04 00:08:50;;;;;;;1999.90;999.90;;;4.00;99.90;;;;;;5051501;28;20445;-70
2022/12/04 00:11:19;;;;;;;1999.90;999.90;;;3.90;99.90;;;;;;5051776;28;20406;-70
2022/12/04 00:13:45;;;;;;;1999.90;999.90;;;3.90;99.90;;;;;;5051702;28;20518;-70
2022/12/04 00:16:19;;;;;;;1999.90;999.90;;;3.90;99.90;;;;;;5051607;28;20500;-70
2022/12/04 00:18:45;;;;;;;1999.90;999.90;;;3.90;99.90;;;;;;5054079;28;20207;-70
2022/12/04 00:21:13;;;;;;;1999.90;999.90;;;3.90;99.90;;;;;;5055887;28;20440;-70
2022/12/04 00:23:39;;;;;;;1999.90;999.90;;;3.90;99.90;;;;;;5055788;28;20845;-70
2022/12/04 00:26:08;;;;;;;1999.90;999.90;;;3.90;99.90;;;;;;5055720;28;20175;-70
2022/12/04 00:28:34;;;;;;;1999.90;999.90;;;3.90;99.90;;;;;;5055398;28;20460;-70
2022/12/04 00:31:03;;;;;;;1999.90;999.90;;;3.90;99.90;;;;;;5055657;28;20175;-70
2022/12/04 00:33:28;;;;;;;1999.90;999.90;;;3.90;99.90;;;;;;5055617;28;20192;-70
2022/12/04 00:35:59;;;;;;;1999.90;999.90;;;3.90;99.90;;;;;;5056007;28;20402;-70
2022/12/04 00:38:24;;;;;;;1999.90;999.90;;;4.00;99.90;;;;;;5055341;28;20198;-70
2022/12/04 00:40:51;;;;;;;1999.90;999.90;;;3.90;99.90;;;;;;5055524;28;20406;-70
2022/12/04 00:43:17;;;;;;;1999.90;999.90;;;4.00;99.90;;;;;;5055232;28;20215;-70
2022/12/04 00:45:42;;;;;;;1999.90;999.90;;;3.90;99.90;;;;;;5055679;28;20172;-70
2022/12/04 00:48:08;;;;;;;1999.90;999.90;;;3.90;99.90;;;;;;5055066;28;20195;-70
2022/12/04 00:50:34;;;;;;;1999.90;999.90;;;3.90;99.90;;;;;;5055450;28;20195;-70
2022/12/04 00:53:00;;;;;;;1999.90;999.90;;;3.90;99.90;;;;;;5055180;28;20429;-70
2022/12/04 00:55:25;;;;;;;1999.90;999.90;;;3.90;99.90;;;;;;5055298;28;20411;-70
2022/12/04 00:57:51;;;;;;;1999.90;999.90;;;4.00;99.90;;;;;;5054901;28;20603;-70
2022/12/04 01:00:17;;;;;;;1999.90;999.90;;;4.00;99.90;;;;;;5055184;28;20182;-70
2022/12/04 01:02:43;;;;;;;1999.90;999.90;;;3.90;99.90;;;;;;5055204;28;20204;-70
2022/12/04 01:05:09;;;;;;;1999.90;999.90;;;3.90;99.90;;;;;;5055095;28;20416;-70
2022/12/04 01:07:35;;;;;;;1999.90;999.90;;;3.80;99.90;;;;;;5054620;28;20414;-70
2022/12/04 01:10:01;;;;;;;1999.90;999.90;;;3.80;99.90;;;;;;5055021;28;20448;-70
2022/12/04 01:12:27;;;;;;;1999.90;999.90;;;3.90;99.90;;;;;;5054878;28;20168;-70
2022/12/04 01:14:53;;;;;;;1999.90;999.90;;;3.90;99.90;;;;;;5055109;28;20934;-70
2022/12/04 01:17:18;;;;;;;1999.90;999.90;;;3.90;99.90;;;;;;5054715;28;20168;-70
2022/12/04 01:19:44;;;;;;;1999.90;999.90;;;3.90;99.90;;;;;;5054782;28;20226;-70
2022/12/04 01:22:09;;;;;;;1999.90;999.90;;;3.90;99.90;;;;;;5054764;28;20160;-70
2022/12/04 01:24:35;;;;;;;1999.90;999.90;;;3.90;99.90;;;;;;5054694;28;20185;-70
2022/12/04 01:27:00;;;;;;;1999.90;999.90;;;3.90;99.90;;;;;;5054481;28;20160;-70
2022/12/04 01:29:26;;;;;;;1999.90;999.90;;;3.90;99.90;;;;;;5053175;28;20278;-70
2022/12/04 01:31:51;;;;;;;1999.90;999.90;;;3.90;99.90;;;;;;5054611;28;20155;-70
2022/12/04 01:34:17;;;;;;;1999.90;999.90;;;3.80;99.90;;;;;;5054480;28;20187;-70
2022/12/04 01:36:43;;;;;;;1999.90;999.90;;;3.90;99.90;;;;;;5054199;28;20306;-70
2022/12/04 01:39:08;;;;;;;1999.90;999.90;;;3.80;99.90;;;;;;5054418;28;20175;-70
2022/12/04 01:41:34;;;;;;;1999.90;999.90;;;3.90;99.90;;;;;;5054462;28;20172;-70
2022/12/04 01:44:26;;;;;;;1999.90;999.90;;;3.80;99.90;;;;;;5054247;28;20207;-70
2022/12/04 01:46:54;;;;;;;1999.90;999.90;;;3.90;99.90;;;;;;5052947;28;20188;-70
2022/12/04 01:49:24;;;;;;;1999.90;999.90;;;3.90;99.90;;;;;;5054126;28;20490;-70
2022/12/04 01:52:11;;;;;;;1999.90;999.90;;;3.90;99.90;;;;;;5054133;28;20402;-70
2022/12/04 01:54:41;;;;;;;1999.90;999.90;;;3.90;99.90;;;;;;5054100;28;20454;-70
2022/12/04 01:57:11;;;;;;;1999.90;999.90;;;3.90;99.90;;;;;;5054076;28;20179;-70
2022/12/04 01:59:54;;;;;;;1999.90;999.90;;;3.90;99.90;;;;;;5054043;28;20637;-70
2022/12/04 02:02:30;;;;;;;1999.90;999.90;;;3.90;99.90;;;;;;5053898;28;20405;-70
2022/12/04 02:04:56;;;;;;;1999.90;999.90;;;3.90;99.90;;;;;;5053958;28;20446;-70
2022/12/04 02:07:22;;;;;;;1999.90;999.90;;;3.90;99.90;;;;;;5053610;28;20446;-70
2022/12/04 02:09:52;;;;;;;1999.90;999.90;;;3.90;99.90;;;;;;5053849;28;20182;-70
2022/12/04 02:12:24;;;;;;;1999.90;999.90;;;3.90;99.90;;;;;;5053987;28;20222;-70
2022/12/04 02:15:18;;;;;;;1999.90;999.90;;;3.90;99.90;;;;;;5053727;28;20414;-70
2022/12/04 02:18:22;;;;;;;1999.90;999.90;;;4.00;99.90;;;;;;5053472;28;20414;-70
2022/12/04 02:21:04;;;;;;;1999.90;999.90;;;4.00;99.90;;;;;;5053653;28;20410;-69
2022/12/04 02:23:35;;;;;;;1999.90;999.90;;;3.90;99.90;;;;;;5053557;28;20429;-70
2022/12/04 02:26:27;;;;;;;1999.90;999.90;;;3.90;99.90;;;;;;5053484;28;20402;-69
2022/12/04 02:28:59;;;;;;;1999.90;999.90;;;3.90;99.90;;;;;;5053264;28;20503;-70
2022/12/04 02:31:38;;;;;;;1999.90;999.90;;;3.90;99.90;;;;;;5053439;28;20764;-71
2022/12/04 02:34:13;;;;;;;1999.90;999.90;;;3.90;99.90;;;;;;5053352;28;20520;-70
2022/12/04 02:36:49;;;;;;;1999.90;999.90;;;3.80;99.90;;;;;;5053207;28;20405;-70
2022/12/04 02:39:26;;;;;;;1999.90;999.90;;;3.80;99.90;;;;;;5053304;28;20406;-70
2022/12/04 02:42:19;;;;;;;1999.90;999.90;;;3.80;99.90;;;;;;5044987;28;20422;-70
2022/12/04 02:44:57;;;;;;;1999.90;999.90;;;3.80;99.90;;;;;;5033238;28;20454;-70
2022/12/04 02:47:24;;;;;;;1999.90;999.90;;;3.90;99.90;;;;;;5033103;28;20407;-70
2022/12/04 02:50:00;;;;;;;1999.90;999.90;;;3.80;99.90;;;;;;5033167;28;20916;-71
2022/12/04 02:52:36;;;;;;;1999.90;999.90;;;3.90;99.90;;;;;;5033025;28;20214;-70
2022/12/04 02:55:09;;;;;;;1999.90;999.90;;;3.90;99.90;;;;;;5033214;28;20183;-70
2022/12/04 02:57:39;;;;;;;1999.90;999.90;;;3.80;99.90;;;;;;5032844;28;20420;-70
2022/12/04 03:00:07;;;;;;;1999.90;999.90;;;3.80;99.90;;;;;;5033152;28;20981;-70
2022/12/04 03:02:39;;;;;;;1999.90;999.90;;;3.80;99.90;;;;;;5032907;28;20414;-70
2022/12/04 03:05:16;;;;;;;1999.90;999.90;;;3.90;99.90;;;;;;5033204;28;20693;-70
2022/12/04 03:07:51;;;;;;;1999.90;999.90;;;3.80;99.90;;;;;;5032583;28;20203;-71
2022/12/04 03:10:45;;;;;;;1999.90;999.90;;;3.80;99.90;;;;;;5032928;28;20409;-71
2022/12/04 03:13:17;;;;;;;1999.90;999.90;;;3.80;99.90;;;;;;5031435;28;20449;-70
2022/12/04 03:15:49;;;;;;;1999.90;999.90;;;3.80;99.90;;;;;;5032771;28;20406;-70
2022/12/04 03:18:25;;;;;;;1999.90;999.90;;;3.80;99.90;;;;;;5032549;28;20880;-70
2022/12/04 03:20:57;;;;;;;1999.90;999.90;;;3.80;99.90;;;;;;5032527;28;20418;-70
2022/12/04 03:23:31;;;;;;;1999.90;999.90;;;3.80;99.90;;;;;;5032533;28;20437;-70
2022/12/04 03:26:24;;;;;;;1999.90;999.90;;;3.80;99.90;;;;;;5032462;28;20888;-70
2022/12/04 03:29:16;;;;;;;1999.90;999.90;;;3.80;99.90;;;;;;5032254;28;20459;-70
2022/12/04 03:32:13;;;;;;;1999.90;999.90;;;3.80;99.90;;;;;;5022091;28;20437;-70
2022/12/04 03:35:20;;;;;;;1999.90;999.90;;;3.80;99.90;;;;;;5031974;28;20507;-70
2022/12/04 03:38:03;;;;;;;1999.90;999.90;;;3.80;99.90;;;;;;5010052;28;20239;-70
2022/12/04 03:40:48;;;;;;;1999.90;999.90;;;3.80;99.90;;;;;;5030535;28;20827;-70
2022/12/04 03:43:25;;;;;;;1999.90;999.90;;;3.80;99.90;;;;;;5032111;28;20446;-70
2022/12/04 03:46:08;;;;;;;1999.90;999.90;;;3.80;99.90;;;;;;5032138;28;20419;-70
2022/12/04 03:48:47;;;;;;;1999.90;999.90;;;3.80;99.90;;;;;;5031871;28;20465;-70
2022/12/04 03:51:28;;;;;;;1999.90;999.90;;;3.70;99.90;;;;;;5032191;28;20395;-70
2022/12/04 03:54:00;;;;;;;1999.90;999.90;;;3.80;99.90;;;;;;5031406;28;20419;-70
2022/12/04 03:56:29;;;;;;;1999.90;999.90;;;3.80;99.90;;;;;;5032023;28;20457;-70
2022/12/04 03:59:02;;;;;;;1999.90;999.90;;;3.80;99.90;;;;;;5031884;28;20566;-70
2022/12/04 04:01:34;;;;;;;1999.90;999.90;;;3.80;99.90;;;;;;5032080;28;20430;-70
2022/12/04 04:04:03;;;;;;;1999.90;999.90;;;3.80;99.90;;;;;;5031947;28;20430;-70
2022/12/04 04:06:37;;;;;;;1999.90;999.90;;;3.70;99.90;;;;;;5031949;28;20411;-70
2022/12/04 04:09:14;;;;;;;1999.90;999.90;;;3.70;99.90;;;;;;5031814;28;20498;-69
2022/12/04 04:11:47;;;;;;;1999.90;999.90;;;3.70;99.90;;;;;;5031921;28;20164;-69
2022/12/04 04:25:45;;;;;;;1999.90;999.90;;;3.60;99.90;;;;;;5032091;28;20448;-69
2022/12/04 04:28:30;;;;;;;1999.90;999.90;;;3.50;99.90;;;;;;5031399;28;20446;-69
2022/12/04 04:31:15;;;;;;;1999.90;999.90;;;3.50;99.90;;;;;;5031697;28;20436;-70
2022/12/04 04:33:51;;;;;;;1999.90;999.90;;;3.50;99.90;;;;;;5031681;28;20434;-69
2022/12/04 04:36:28;;;;;;;1999.90;999.90;;;3.50;99.90;;;;;;5031640;28;20770;-70
2022/12/04 04:39:05;;;;;;;1999.90;999.90;;;3.50;99.90;;;;;;5031706;28;20485;-69
2022/12/04 04:41:53;;;;;;;1999.90;999.90;;;3.50;99.90;;;;;;5031730;28;20407;-69
2022/12/04 04:44:47;;;;;;;1999.90;999.90;;;3.50;99.90;;;;;;5031541;28;20459;-69
2022/12/04 04:47:26;;;;;;;1999.90;999.90;;;3.50;99.90;;;;;;5031359;28;20509;-70
2022/12/04 04:49:54;;;;;;;1999.90;999.90;;;3.50;99.90;;;;;;5031750;28;20663;-69
2022/12/04 04:52:22;;;;;;;1999.90;999.90;;;3.50;99.90;;;;;;5031620;28;20414;-70
2022/12/04 04:54:48;;;;;;;1999.90;999.90;;;3.60;99.90;;;;;;5031682;28;21050;-69
2022/12/04 04:57:27;;;;;;;1999.90;999.90;;;3.50;99.90;;;;;;5031303;28;20387;-70
2022/12/04 04:59:53;;;;;;;1999.90;999.90;;;3.50;99.90;;;;;;5031690;28;20172;-69
2022/12/04 05:02:18;;;;;;;1999.90;999.90;;;3.40;99.90;;;;;;5031443;28;20810;-69
2022/12/04 05:04:44;;;;;;;1999.90;999.90;;;3.40;99.90;;;;;;5033650;28;20262;-69
2022/12/04 05:07:10;;;;;;;1999.90;999.90;;;3.40;99.90;;;;;;5035048;28;20635;-70
2022/12/04 05:09:35;;;;;;;1999.90;999.90;;;3.40;99.90;;;;;;5035080;28;20616;-69
2022/12/04 05:12:01;;;;;;;1999.90;999.90;;;3.40;99.90;;;;;;5035022;28;20191;-69
2022/12/04 05:14:26;;;;;;;1999.90;999.90;;;3.40;99.90;;;;;;5034965;28;20242;-69
2022/12/04 05:16:52;;;;;;;1999.90;999.90;;;3.40;99.90;;;;;;5034832;28;20541;-69
2022/12/04 05:22:01;;;;;;;1999.90;999.90;;;3.40;99.90;;;;;;5035005;28;20668;-69
2022/12/04 05:24:28;;;;;;;1999.90;999.90;;;3.40;99.90;;;;;;5034710;28;20423;-69
2022/12/04 05:26:53;;;;;;;1999.90;999.90;;;3.40;99.90;;;;;;5034582;28;20168;-69
2022/12/04 05:29:19;;;;;;;1999.90;999.90;;;3.40;99.90;;;;;;5034524;28;20461;-69
2022/12/04 05:31:44;;;;;;;1999.90;999.90;;;3.40;99.90;;;;;;5034743;28;20160;-69
2022/12/04 05:34:10;;;;;;;1999.90;999.90;;;3.40;99.90;;;;;;5034611;28;20185;-69
2022/12/04 05:36:36;;;;;;;1999.90;999.90;;;3.40;99.90;;;;;;5034551;28;20676;-69
2022/12/04 05:39:01;;;;;;;1999.90;999.90;;;3.40;99.90;;;;;;5034316;28;20191;-69
2022/12/04 05:41:27;;;;;;;1999.90;999.90;;;3.40;99.90;;;;;;5034527;28;20226;-68
2022/12/04 05:43:52;;;;;;;1999.90;999.90;;;3.30;99.90;;;;;;5034334;28;20268;-70
2022/12/04 05:46:18;;;;;;;1999.90;999.90;;;3.30;99.90;;;;;;5034301;28;20175;-69
2022/12/04 05:48:43;;;;;;;1999.90;999.90;;;3.30;99.90;;;;;;5034171;28;20585;-69
2022/12/04 05:51:10;;;;;;;1999.90;999.90;;;3.30;99.90;;;;;;5034390;28;20161;-69
2022/12/04 05:53:37;;;;;;;1999.90;999.90;;;3.30;99.90;;;;;;5034201;28;20216;-69
2022/12/04 05:56:06;;;;;;;1999.90;999.90;;;3.30;99.90;;;;;;5034186;28;20172;-70
2022/12/04 05:58:35;;;;;;;1999.90;999.90;;;3.40;99.90;;;;;;5034235;28;20176;-69
2022/12/04 06:01:10;;;;;;;1999.90;999.90;;;3.40;99.90;;;;;;5034134;28;20183;-70
2022/12/04 06:03:36;;;;;;;1999.90;999.90;;;3.40;99.90;;;;;;5034182;28;20250;-69
2022/12/04 06:06:01;;;;;;;1999.90;999.90;;;3.40;99.90;;;;;;5033944;28;20585;-69
2022/12/04 06:08:27;;;;;;;1999.90;999.90;;;3.40;99.90;;;;;;5033812;28;20207;-69
2022/12/04 06:10:52;;;;;;;1999.90;999.90;;;3.40;99.90;;;;;;5033989;28;20180;-70
2022/12/04 06:13:18;;;;;;;1999.90;999.90;;;3.40;99.90;;;;;;5033872;28;20250;-69
2022/12/04 06:15:43;;;;;;;1999.90;999.90;;;3.30;99.90;;;;;;5033176;28;20180;-70
2022/12/04 06:18:09;;;;;;;1999.90;999.90;;;3.30;99.90;;;;;;5033649;28;20180;-69
2022/12/04 06:20:34;;;;;;;1999.90;999.90;;;3.40;99.90;;;;;;5033818;28;20565;-69
2022/12/04 06:23:00;;;;;;;1999.90;999.90;;;3.30;99.90;;;;;;5033655;28;20200;-69
2022/12/04 06:25:26;;;;;;;1999.90;999.90;;;3.30;99.90;;;;;;5033725;28;20544;-69
2022/12/04 06:27:51;;;;;;;1999.90;999.90;;;3.40;99.90;;;;;;5033363;28;20200;-69
2022/12/04 06:30:17;;;;;;;1999.90;999.90;;;3.40;99.90;;;;;;5033491;28;20180;-69
2022/12/04 06:32:42;;;;;;;1999.90;999.90;;;3.40;99.90;;;;;;5033529;28;20192;-69
2022/12/04 06:35:08;;;;;;;1999.90;999.90;;;3.40;99.90;;;;;;5033556;28;20203;-70
2022/12/04 06:37:34;;;;;;;1999.90;999.90;;;3.30;99.90;;;;;;5033672;28;20172;-69
2022/12/04 06:39:59;;;;;;;1999.90;999.90;;;3.30;99.90;;;;;;5033905;28;20165;-71
2022/12/04 06:42:25;;;;;;;1999.90;999.90;;;3.20;99.90;;;;;;5033337;28;20181;-70
2022/12/04 06:44:50;;;;;;;1999.90;999.90;;;3.20;99.90;;;;;;5033261;28;20634;-70
2022/12/04 06:47:16;;;;;;;1999.90;999.90;;;3.20;99.90;;;;;;5033088;28;20165;-70
2022/12/04 06:49:42;;;;;;;1999.90;999.90;;;3.20;99.90;;;;;;5033117;28;20204;-70
2022/12/04 06:52:07;;;;;;;1999.90;999.90;;;3.20;99.90;;;;;;5033177;28;20164;-70
2022/12/04 06:54:33;;;;;;;1999.90;999.90;;;3.20;99.90;;;;;;5033103;28;20215;-70
2022/12/04 06:56:58;;;;;;;1999.90;999.90;;;3.20;99.90;;;;;;5032922;28;20657;-70
2022/12/04 06:59:24;;;;;;;1999.90;999.90;;;3.20;99.90;;;;;;5032946;28;20541;-70
2022/12/04 07:01:49;;;;;;;1999.90;999.90;;;3.20;99.90;;;;;;5033055;28;20179;-70
2022/12/04 07:04:15;;;;;;;1999.90;999.90;;;3.20;99.90;;;;;;5032918;28;20204;-70
2022/12/04 07:06:41;;;;;;;1999.90;999.90;;;3.20;99.90;;;;;;5032697;28;20180;-70
2022/12/04 07:09:11;;;;;;;1999.90;999.90;;;3.20;99.90;;;;;;5032786;28;20650;-70
2022/12/04 07:11:37;;;;;;;1999.90;999.90;;;3.10;99.90;;;;;;5032861;28;20215;-70
2022/12/04 07:14:03;;;;;;;1999.90;999.90;;;3.10;99.90;;;;;;5032813;28;20200;-70
2022/12/04 07:16:29;;;;;;;1999.90;999.90;;;3.10;99.90;;;;;;5032675;28;20669;-70
2022/12/04 07:18:56;;;;;;;1999.90;999.90;;;3.00;99.90;;;;;;5032482;28;20561;-70
2022/12/04 07:21:24;;;;;;;1999.90;999.90;;;3.00;99.90;;;;;;5032571;28;20268;-70
2022/12/04 07:23:51;;;;;;;1999.90;999.90;;;3.00;99.90;;;;;;5032535;28;20277;-70
2022/12/04 07:26:18;;;;;;;1999.90;999.90;;;3.00;99.90;;;;;;5032461;28;20172;-70
2022/12/04 07:28:44;;;;;;;1999.90;999.90;;;3.00;99.90;;;;;;5032283;28;20282;-70
2022/12/04 07:31:14;;;;;;;1999.90;999.90;;;3.00;99.90;;;;;;5032603;28;20268;-70
2022/12/04 07:33:40;;;;;;;1999.90;999.90;;;3.00;99.90;;;;;;5032322;28;20433;-70
2022/12/04 07:36:08;;;;;;;1999.90;999.90;;;3.00;99.90;;;;;;5032383;28;20619;-70
2022/12/04 07:38:34;;;;;;;1999.90;999.90;;;3.10;99.90;;;;;;5032170;28;20230;-70
2022/12/04 07:41:02;;;;;;;1999.90;999.90;;;3.00;99.90;;;;;;5032370;28;20172;-70
2022/12/04 07:43:29;;;;;;;1999.90;999.90;;;3.00;99.90;;;;;;5032058;28;20940;-70
2022/12/04 07:45:55;;;;;;;1999.90;999.90;;;3.00;99.90;;;;;;5032181;28;20590;-70
2022/12/04 07:48:20;;;;;;;1999.90;999.90;;;3.10;99.90;;;;;;5031958;28;20595;-70
2022/12/04 07:50:46;;;;;;;1999.90;999.90;;;3.10;99.90;;;;;;5032217;28;20176;-70
2022/12/04 07:53:12;;;;;;;1999.90;999.90;;;3.10;99.90;;;;;;5032187;28;20196;-70
2022/12/04 07:55:38;;;;;;;1999.90;999.90;;;3.00;99.90;;;;;;5032252;28;20457;-70
2022/12/04 07:58:04;;;;;;;1999.90;999.90;;;3.00;99.90;;;;;;5031876;28;20422;-70
2022/12/04 08:00:29;;;;;;;1999.90;999.90;;;3.00;99.90;;;;;;5032055;28;20399;-70
2022/12/04 08:02:55;;;;;;;1999.90;999.90;;;3.00;99.90;;;;;;5031914;28;20196;-70
2022/12/04 08:05:21;;;;;;;1999.90;999.90;;;3.00;99.90;;;;;;5032221;28;20234;-70
2022/12/04 08:07:46;;;;;;;1999.90;999.90;;;2.90;99.90;;;;;;5031726;28;20646;-70
2022/12/04 08:10:13;;;;;;;1999.90;999.90;;;2.90;99.90;;;;;;5031936;28;20497;-70
2022/12/04 08:12:38;;;;;;;1999.90;999.90;;;2.90;99.90;;;;;;5031810;28;20196;-69
2022/12/04 08:15:05;;;;;;;1999.90;999.90;;;2.90;99.90;;;;;;5032027;28;20202;-69
2022/12/04 08:17:30;;;;;;;1999.90;999.90;;;2.90;99.90;;;;;;5031603;28;20176;-69
2022/12/04 08:19:56;;;;;;;1999.90;999.90;;;2.80;99.90;;;;;;5031837;28;20175;-70
2022/12/04 08:22:22;;;;;;;1999.90;999.90;;;2.80;99.90;;;;;;5031872;28;20214;-69
2022/12/04 08:24:48;;;;;;;1999.90;999.90;;;2.80;99.90;;;;;;5031815;28;20160;-69
2022/12/04 08:27:13;;;;;;;1999.90;999.90;;;2.80;99.90;;;;;;5031544;28;20222;-70
2022/12/04 08:29:39;;;;;;;1999.90;999.90;;;2.80;99.90;;;;;;5031620;28;20681;-69
2022/12/04 08:32:05;;;;;;;1999.90;999.90;;;2.80;99.90;;;;;;5031833;28;20271;-69
2022/12/04 08:34:30;;;;;;;1999.90;999.90;;;2.80;99.90;;;;;;5031683;28;20192;-69
2022/12/04 08:36:56;;;;;;;1999.90;999.90;;;2.80;99.90;;;;;;5031423;28;20263;-69
2022/12/04 08:39:22;;;;;;;1999.90;999.90;;;2.90;99.90;;;;;;5033466;28;20180;-69
2022/12/04 08:41:47;;;;;;;1999.90;999.90;;;2.90;99.90;;;;;;5035729;28;20168;-69
2022/12/04 08:44:13;;;;;;;1999.90;999.90;;;2.90;99.90;;;;;;5035414;28;20342;-70
2022/12/04 08:46:39;;;;;;;1999.90;999.90;;;2.90;99.90;;;;;;5035645;28;20183;-69
2022/12/04 08:49:04;;;;;;;1999.90;999.90;;;2.90;99.90;;;;;;5035356;28;20196;-69
2022/12/04 08:51:33;;;;;;;1999.90;999.90;;;2.90;99.90;;;;;;5035180;28;20180;-69
2022/12/04 08:54:04;;;;;;;1999.90;999.90;;;2.90;99.90;;;;;;5035264;28;20196;-70
2022/12/04 08:56:31;;;;;;;1999.90;999.90;;;3.00;99.90;;;;;;5035288;28;20172;-69
2022/12/04 08:58:57;;;;;;;1999.90;999.90;;;3.00;99.90;;;;;;5035183;28;20168;-69
2022/12/04 09:01:24;;;;;;;1999.90;999.90;;;3.00;99.90;;;;;;5035272;28;20181;-70
2022/12/04 09:03:50;;;;;;;1999.90;999.90;;;3.00;99.90;;;;;;5035392;28;20196;-70
2022/12/04 09:06:16;;;;;;;1999.90;999.90;;;3.00;99.90;;;;;;5035194;28;20175;-69
2022/12/04 09:08:42;;;;;;;1999.90;999.90;;;3.00;99.90;;;;;;5035010;28;20200;-69
2022/12/04 09:11:10;;;;;;;1999.90;999.90;;;3.00;99.90;;;;;;5035134;28;20259;-70
2022/12/04 09:13:37;;;;;;;1999.90;999.90;;;3.10;99.90;;;;;;5034992;28;21129;-69
2022/12/04 09:16:05;;;;;;;1999.90;999.90;;;3.10;99.90;;;;;;5034930;28;20179;-69
2022/12/04 09:18:31;;;;;;;1999.90;999.90;;;3.10;99.90;;;;;;5034969;28;20218;-70
2022/12/04 09:20:59;;;;;;;1999.90;999.90;;;3.10;99.90;;;;;;5035098;28;20195;-68
2022/12/04 09:23:25;;;;;;;1999.90;999.90;;;3.10;99.90;;;;;;5034838;28;20231;-69
2022/12/04 09:25:51;;;;;;;1999.90;999.90;;;3.10;99.90;;;;;;5034735;28;20230;-70
2022/12/04 09:28:18;;;;;;;1999.90;999.90;;;3.10;99.90;;;;;;5034556;28;20566;-69
2022/12/04 09:30:43;;;;;;;1999.90;999.90;;;3.10;99.90;;;;;;5034752;28;20198;-69
2022/12/04 09:33:09;;;;;;;1999.90;999.90;;;3.10;99.90;;;;;;5034695;28;20243;-69
2022/12/04 09:35:34;;;;;;;1999.90;999.90;;;3.10;99.90;;;;;;5034549;28;20630;-70
2022/12/04 09:38:00;;;;;;;1999.90;999.90;;;3.00;99.90;;;;;;5034357;28;20179;-69
2022/12/04 09:40:37;;;;;;;1999.90;999.90;;;3.00;99.90;;;;;;5034414;28;20164;-69
2022/12/04 09:43:27;;;;;;;1999.90;999.90;;;3.00;99.90;;;;;;5034308;28;20204;-69
2022/12/04 09:45:57;;;;;;;1999.90;999.90;;;3.10;99.90;;;;;;5034391;28;20253;-69
2022/12/04 09:48:31;;;;;;;1999.90;999.90;;;3.10;99.90;;;;;;5034239;28;20675;-68
2022/12/04 09:50:59;;;;;;;1999.90;999.90;;;3.10;99.90;;;;;;5033198;28;20659;-69
2022/12/04 09:53:58;;;;;;;1999.90;999.90;;;3.00;99.90;;;;;;5034220;28;20199;-69
2022/12/04 09:56:28;;;;;;;1999.90;999.90;;;3.10;99.90;;;;;;5025498;28;20188;-69
2022/12/04 09:59:03;;;;;;;1999.90;999.90;;;3.00;99.90;;;;;;5034127;28;20402;-69
2022/12/04 10:01:52;;;;;;;1999.90;999.90;;;3.00;99.90;;;;;;5034248;28;20542;-70
2022/12/04 10:04:18;;;;;;;1999.90;999.90;;;3.10;99.90;;;;;;5033083;28;20235;-70
2022/12/04 10:07:04;;;;;;;1999.90;999.90;;;3.20;99.90;;;;;;5032836;28;20211;-70
2022/12/04 10:09:51;;;;;;;1999.90;999.90;;;3.30;99.90;;;;;;5032045;28;20231;-70
2022/12/04 10:12:44;;;;;;;1999.90;999.90;;;3.30;99.90;;;;;;5030953;28;20168;-70
2022/12/04 10:15:22;;;;;;;1999.90;999.90;;;3.30;99.90;;;;;;5033351;28;20411;-70
2022/12/04 10:18:20;;;;;;;1999.90;999.90;;;3.30;99.90;;;;;;5033608;28;20622;-70
2022/12/04 10:21:05;;;;;;;1999.90;999.90;;;3.30;99.90;;;;;;5033714;28;20204;-70
2022/12/04 10:23:55;;;;;;;1999.90;999.90;;;3.30;99.90;;;;;;5033668;28;20195;-70
2022/12/04 10:26:27;;;;;;;1999.90;999.90;;;3.30;99.90;;;;;;5032531;28;20171;-70
2022/12/04 10:28:58;;;;;;;1999.90;999.90;;;3.30;99.90;;;;;;5033404;28;20189;-70
2022/12/04 10:31:25;;;;;;;1999.90;999.90;;;3.30;99.90;;;;;;5033797;28;20551;-70
2022/12/04 10:33:54;;;;;;;1999.90;999.90;;;3.20;99.90;;;;;;5033498;28;20431;-69
2022/12/04 10:36:24;;;;;;;1999.90;999.90;;;3.20;99.90;;;;;;5033465;28;20426;-70
2022/12/04 10:38:55;;;;;;;1999.90;999.90;;;3.30;99.90;;;;;;5033270;28;20497;-69
2022/12/04 10:41:43;;;;;;;1999.90;999.90;;;3.30;99.90;;;;;;5033588;28;20407;-69
2022/12/04 10:44:14;;;;;;;1999.90;999.90;;;3.30;99.90;;;;;;5033244;28;20299;-69
2022/12/04 10:46:40;;;;;;;1999.90;999.90;;;3.20;99.90;;;;;;5033137;28;20268;-69
2022/12/04 10:49:17;;;;;;;1999.90;999.90;;;3.30;99.90;;;;;;5033001;28;20541;-69
2022/12/04 10:51:44;;;;;;;1999.90;999.90;;;3.30;99.90;;;;;;5032009;28;20557;-70
2022/12/04 10:54:20;;;;;;;1999.90;999.90;;;3.30;99.90;;;;;;5033659;28;20430;-70
2022/12/04 10:56:57;;;;;;;1999.90;999.90;;;3.40;99.90;;;;;;5032439;28;20399;-70
2022/12/04 10:59:23;;;;;;;1999.90;999.90;;;3.40;99.90;;;;;;5029211;28;20402;-70
2022/12/04 11:01:57;;;;;;;1999.90;999.90;;;3.30;99.90;;;;;;5032566;28;20395;-69
2022/12/04 11:04:26;;;;;;;1999.90;999.90;;;3.30;99.90;;;;;;5032701;28;20423;-69
2022/12/04 11:07:18;;;;;;;1999.90;999.90;;;3.30;99.90;;;;;;5031827;28;20823;-69
2022/12/04 11:09:53;;;;;;;1999.90;999.90;;;3.30;99.90;;;;;;5032375;28;20455;-69
2022/12/04 11:12:21;;;;;;;1999.90;999.90;;;3.30;99.90;;;;;;5032397;28;20505;-69
2022/12/04 11:14:57;;;;;;;1999.90;999.90;;;3.30;99.90;;;;;;5033160;28;20870;-70
2022/12/04 11:17:23;;;;;;;1999.90;999.90;;;3.30;99.90;;;;;;5032241;28;20418;-71
2022/12/04 11:20:01;;;;;;;1999.90;999.90;;;3.30;99.90;;;;;;5032324;28;20176;-69
2022/12/04 11:22:27;;;;;;;1999.90;999.90;;;3.30;99.90;;;;;;5032083;28;20168;-68
2022/12/04 11:24:55;;;;;;;1999.90;999.90;;;3.30;99.90;;;;;;5032664;28;20805;-69
2022/12/04 11:27:32;;;;;;;1999.90;999.90;;;3.30;99.90;;;;;;5031822;28;20407;-69
2022/12/04 11:30:06;;;;;;;1999.90;999.90;;;3.40;99.90;;;;;;5031806;28;20211;-71
2022/12/04 11:32:33;;;;;;;1999.90;999.90;;;3.40;99.90;;;;;;5031963;28;21009;-71
2022/12/04 11:35:10;;;;;;;1999.90;999.90;;;3.40;99.90;;;;;;5031728;28;20626;-71
2022/12/04 11:37:36;;;;;;;1999.90;999.90;;;3.40;99.90;;;;;;5031707;28;20176;-71
2022/12/04 11:40:13;;;;;;;1999.90;999.90;;;3.40;99.90;;;;;;5032018;28;20227;-71
2022/12/04 11:42:38;;;;;;;1999.90;999.90;;;3.50;99.90;;;;;;5034438;28;20187;-71
2022/12/04 11:45:22;;;;;;;1999.90;999.90;;;3.50;99.90;;;;;;5051934;28;20452;-71
2022/12/04 11:47:59;;;;;;;1999.90;999.90;;;3.40;99.90;;;;;;5051363;28;20664;-71
2022/12/04 11:50:50;;;;;;;1999.90;999.90;;;3.50;99.90;;;;;;5051319;28;20179;-71
2022/12/04 11:53:37;;;;;;;1999.90;999.90;;;3.40;99.90;;;;;;5051432;28;20502;-71
2022/12/04 11:56:08;;;;;;;1999.90;999.90;;;3.40;99.90;;;;;;5051523;28;20172;-71
2022/12/04 11:59:04;;;;;;;1999.90;999.90;;;3.40;99.90;;;;;;5050643;28;20435;-71
2022/12/04 12:01:49;;;;;;;1999.90;999.90;;;3.50;99.90;;;;;;5051437;28;20445;-71
2022/12/04 12:04:48;;;;;;;1999.90;999.90;;;3.50;99.90;;;;;;5051556;28;20215;-71
2022/12/04 12:07:49;;;;;;;1999.90;999.90;;;3.50;99.90;;;;;;5052232;28;20522;-71
2022/12/04 12:10:50;;;;;;;1999.90;999.90;;;3.60;99.90;;;;;;5051942;28;20402;-71
2022/12/04 12:13:37;;;;;;;1999.90;999.90;;;3.60;99.90;;;;;;5051134;28;20425;-70
2022/12/04 12:16:27;;;;;;;1999.90;999.90;;;3.50;99.90;;;;;;5052083;28;20443;-70
2022/12/04 12:19:17;;;;;;;1999.90;999.90;;;3.50;99.90;;;;;;5051888;28;20175;-71
2022/12/04 12:22:07;;;;;;;1999.90;999.90;;;3.60;99.90;;;;;;5051938;28;20641;-70
2022/12/04 12:24:38;;;;;;;1999.90;999.90;;;3.70;99.90;;;;;;5051838;28;20306;-70
2022/12/04 12:27:31;;;;;;;1999.90;999.90;;;3.60;99.90;;;;;;5050166;28;20411;-71
2022/12/04 12:30:05;;;;;;;1999.90;999.90;;;3.70;99.90;;;;;;5051358;28;20458;-71
2022/12/04 12:32:57;;;;;;;1999.90;999.90;;;3.70;99.90;;;;;;5051150;28;20406;-71
2022/12/04 12:35:31;;;;;;;1999.90;999.90;;;3.70;99.90;;;;;;5050747;28;20414;-71
2022/12/04 12:38:10;;;;;;;1999.90;999.90;;;3.60;99.90;;;;;;5051258;28;20412;-71
2022/12/04 12:40:54;;;;;;;1999.90;999.90;;;3.70;99.90;;;;;;5051399;28;20933;-71
2022/12/04 12:43:32;;;;;;;1999.90;999.90;;;3.70;99.90;;;;;;5050412;28;20207;-71
2022/12/04 12:46:19;;;;;;;1999.90;999.90;;;3.70;99.90;;;;;;5050913;28;20167;-71